sensor_id;sensor_type;location;lat;lon;timestamp;temperature;humidity
8475;DHT22;4274;52.012;8.448;2023-03-31T00:00:44;10.10;99.90
8475;DHT22;4274;52.012;8.448;2023-03-31T00:03:11;10.10;99.90
8475;DHT22;4274;52.012;8.448;2023-03-31T00:05:37;10.00;99.90
8475;DHT22;4274;52.012;8.448;2023-03-31T00:08:03;9.90;99.90
8475;DHT22;4274;52.012;8.448;2023-03-31T00:10:31;9.90;99.90
8475;DHT22;4274;52.012;8.448;2023-03-31T00:12:58;9.80;99.90
8475;DHT22;4274;52.012;8.448;2023-03-31T00:15:24;9.70;99.90
8475;DHT22;4274;52.012;8.448;2023-03-31T00:17:49;9.70;99.90
8475;DHT22;4274;52.012;8.448;2023-03-31T00:20:15;9.60;99.90
8475;DHT22;4274;52.012;8.448;2023-03-31T00:22:41;9.60;99.90
8475;DHT22;4274;52.012;8.448;2023-03-31T00:25:14;9.50;99.90
8475;DHT22;4274;52.012;8.448;2023-03-31T00:27:44;9.50;99.90
8475;DHT22;4274;52.012;8.448;2023-03-31T00:30:13;9.40;99.90
8475;DHT22;4274;52.012;8.448;2023-03-31T00:32:40;9.30;99.90
8475;DHT22;4274;52.012;8.448;2023-03-31T00:35:05;9.30;99.90
8475;DHT22;4274;52.012;8.448;2023-03-31T00:37:31;9.20;99.90
8475;DHT22;4274;52.012;8.448;2023-03-31T00:40:00;9.20;99.90
8475;DHT22;4274;52.012;8.448;2023-03-31T00:42:26;9.20;99.90
8475;DHT22;4274;52.012;8.448;2023-03-31T00:47:40;9.10;99.90
8475;DHT22;4274;52.012;8.448;2023-03-31T00:50:17;9.10;99.90
8475;DHT22;4274;52.012;8.448;2023-03-31T00:52:45;9.10;99.90
8475;DHT22;4274;52.012;8.448;2023-03-31T00:55:16;9.00;99.90
8475;DHT22;4274;52.012;8.448;2023-03-31T00:57:44;9.00;99.90
8475;DHT22;4274;52.012;8.448;2023-03-31T01:00:13;9.00;99.90
8475;DHT22;4274;52.012;8.448;2023-03-31T01:02:44;8.90;99.90
8475;DHT22;4274;52.012;8.448;2023-03-31T01:05:18;8.90;99.90
8475;DHT22;4274;52.012;8.448;2023-03-31T01:07:47;8.90;99.90
8475;DHT22;4274;52.012;8.448;2023-03-31T01:10:14;8.90;99.90
8475;DHT22;4274;52.012;8.448;2023-03-31T01:12:42;8.80;99.90
8475;DHT22;4274;52.012;8.448;2023-03-31T01:15:10;8.70;99.90
8475;DHT22;4274;52.012;8.448;2023-03-31T01:17:37;8.70;99.90
8475;DHT22;4274;52.012;8.448;2023-03-31T01:41:48;8.30;99.90
8475;DHT22;4274;52.012;8.448;2023-03-31T01:44:27;8.30;99.90
8475;DHT22;4274;52.012;8.448;2023-03-31T01:47:18;8.30;99.90
8475;DHT22;4274;52.012;8.448;2023-03-31T01:50:03;8.20;99.90
8475;DHT22;4274;52.012;8.448;2023-03-31T01:52:39;8.30;99.90
8475;DHT22;4274;52.012;8.448;2023-03-31T01:55:37;8.30;99.90
8475;DHT22;4274;52.012;8.448;2023-03-31T01:58:36;8.30;99.90
8475;DHT22;4274;52.012;8.448;2023-03-31T02:03:57;8.30;99.90
8475;DHT22;4274;52.012;8.448;2023-03-31T02:06:27;8.30;99.90
8475;DHT22;4274;52.012;8.448;2023-03-31T02:08:59;8.40;99.90
8475;DHT22;4274;52.012;8.448;2023-03-31T02:11:28;8.40;99.90
8475;DHT22;4274;52.012;8.448;2023-03-31T02:13:55;8.40;99.90
8475;DHT22;4274;52.012;8.448;2023-03-31T02:16:25;8.40;99.90
8475;DHT22;4274;52.012;8.448;2023-03-31T02:18:57;8.40;99.90
8475;DHT22;4274;52.012;8.448;2023-03-31T02:21:28;8.40;99.90
8475;DHT22;4274;52.012;8.448;2023-03-31T02:23:56;8.50;99.90
8475;DHT22;4274;52.012;8.448;2023-03-31T02:26:27;8.50;99.90
8475;DHT22;4274;52.012;8.448;2023-03-31T02:28:55;8.50;99.90
8475;DHT22;4274;52.012;8.448;2023-03-31T02:31:45;8.60;99.90
8475;DHT22;4274;52.012;8.448;2023-03-31T02:34:12;8.60;99.90
8475;DHT22;4274;52.012;8.448;2023-03-31T02:36:40;8.70;99.90
8475;DHT22;4274;52.012;8.448;2023-03-31T02:39:10;8.70;99.90
8475;DHT22;4274;52.012;8.448;2023-03-31T02:41:36;8.70;99.90
8475;DHT22;4274;52.012;8.448;2023-03-31T02:44:02;8.70;99.90
8475;DHT22;4274;52.012;8.448;2023-03-31T02:46:28;8.70;99.90
8475;DHT22;4274;52.012;8.448;2023-03-31T02:48:57;8.80;99.90
8475;DHT22;4274;52.012;8.448;2023-03-31T02:54:37;8.90;99.90
8475;DHT22;4274;52.012;8.448;2023-03-31T03:03:27;9.10;99.90
8475;DHT22;4274;52.012;8.448;2023-03-31T03:06:18;9.20;99.90
8475;DHT22;4274;52.012;8.448;2023-03-31T03:14:50;9.30;99.90
8475;DHT22;4274;52.012;8.448;2023-03-31T03:17:27;9.30;99.90
8475;DHT22;4274;52.012;8.448;2023-03-31T03:19:57;9.30;99.90
8475;DHT22;4274;52.012;8.448;2023-03-31T03:22:24;9.30;99.90
8475;DHT22;4274;52.012;8.448;2023-03-31T03:24:49;9.40;99.90
8475;DHT22;4274;52.012;8.448;2023-03-31T03:27:16;9.40;99.90
8475;DHT22;4274;52.012;8.448;2023-03-31T03:29:42;9.40;99.90
8475;DHT22;4274;52.012;8.448;2023-03-31T03:32:09;9.40;99.90
8475;DHT22;4274;52.012;8.448;2023-03-31T03:34:35;9.30;99.90
8475;DHT22;4274;52.012;8.448;2023-03-31T03:37:01;9.30;99.90
8475;DHT22;4274;52.012;8.448;2023-03-31T03:39:27;9.30;99.90
8475;DHT22;4274;52.012;8.448;2023-03-31T03:41:53;9.30;99.90
8475;DHT22;4274;52.012;8.448;2023-03-31T03:44:19;9.20;99.90
8475;DHT22;4274;52.012;8.448;2023-03-31T03:46:45;9.20;99.90
8475;DHT22;4274;52.012;8.448;2023-03-31T03:49:11;9.20;99.90
8475;DHT22;4274;52.012;8.448;2023-03-31T03:51:36;9.20;99.90
8475;DHT22;4274;52.012;8.448;2023-03-31T03:54:02;9.20;99.90
8475;DHT22;4274;52.012;8.448;2023-03-31T03:56:27;9.20;99.90
8475;DHT22;4274;52.012;8.448;2023-03-31T03:58:53;9.10;99.90
8475;DHT22;4274;52.012;8.448;2023-03-31T04:01:19;9.10;99.90
8475;DHT22;4274;52.012;8.448;2023-03-31T04:03:45;9.10;99.90
8475;DHT22;4274;52.012;8.448;2023-03-31T04:06:10;9.10;99.90
8475;DHT22;4274;52.012;8.448;2023-03-31T04:08:36;9.10;99.90
8475;DHT22;4274;52.012;8.448;2023-03-31T04:11:01;9.10;99.90
8475;DHT22;4274;52.012;8.448;2023-03-31T04:13:27;9.10;99.90
8475;DHT22;4274;52.012;8.448;2023-03-31T04:15:53;9.10;99.90
8475;DHT22;4274;52.012;8.448;2023-03-31T04:18:18;9.10;99.90
8475;DHT22;4274;52.012;8.448;2023-03-31T04:20:53;9.10;99.90
8475;DHT22;4274;52.012;8.448;2023-03-31T04:23:32;9.10;99.90
8475;DHT22;4274;52.012;8.448;2023-03-31T04:25:58;9.10;99.90
8475;DHT22;4274;52.012;8.448;2023-03-31T04:28:23;9.10;99.90
8475;DHT22;4274;52.012;8.448;2023-03-31T04:30:53;9.10;99.90
8475;DHT22;4274;52.012;8.448;2023-03-31T04:33:19;9.00;99.90
8475;DHT22;4274;52.012;8.448;2023-03-31T04:35:45;9.10;99.90
8475;DHT22;4274;52.012;8.448;2023-03-31T04:38:15;9.00;99.90
8475;DHT22;4274;52.012;8.448;2023-03-31T04:40:46;9.10;99.90
8475;DHT22;4274;52.012;8.448;2023-03-31T04:43:13;9.10;99.90
8475;DHT22;4274;52.012;8.448;2023-03-31T04:45:39;9.00;99.90
8475;DHT22;4274;52.012;8.448;2023-03-31T04:48:04;9.00;99.90
8475;DHT22;4274;52.012;8.448;2023-03-31T04:50:30;9.10;99.90
8475;DHT22;4274;52.012;8.448;2023-03-31T04:52:57;9.00;99.90
8475;DHT22;4274;52.012;8.448;2023-03-31T04:55:22;9.10;99.90
8475;DHT22;4274;52.012;8.448;2023-03-31T04:57:48;9.10;99.90
8475;DHT22;4274;52.012;8.448;2023-03-31T05:00:13;9.00;99.90
8475;DHT22;4274;52.012;8.448;2023-03-31T05:02:40;9.00;99.90
8475;DHT22;4274;52.012;8.448;2023-03-31T05:05:06;9.00;99.90
8475;DHT22;4274;52.012;8.448;2023-03-31T05:07:31;9.00;99.90
8475;DHT22;4274;52.012;8.448;2023-03-31T05:09:57;9.00;99.90
8475;DHT22;4274;52.012;8.448;2023-03-31T05:12:22;9.00;99.90
8475;DHT22;4274;52.012;8.448;2023-03-31T05:14:48;9.00;99.90
8475;DHT22;4274;52.012;8.448;2023-03-31T05:17:13;9.00;99.90
8475;DHT22;4274;52.012;8.448;2023-03-31T05:19:42;9.00;99.90
8475;DHT22;4274;52.012;8.448;2023-03-31T05:22:07;9.00;99.90
8475;DHT22;4274;52.012;8.448;2023-03-31T05:24:33;9.00;99.90
8475;DHT22;4274;52.012;8.448;2023-03-31T05:26:59;9.00;99.90
8475;DHT22;4274;52.012;8.448;2023-03-31T05:29:25;9.00;99.90
8475;DHT22;4274;52.012;8.448;2023-03-31T05:31:50;9.00;99.90
8475;DHT22;4274;52.012;8.448;2023-03-31T05:34:18;9.00;99.90
8475;DHT22;4274;52.012;8.448;2023-03-31T05:36:44;9.00;99.90
8475;DHT22;4274;52.012;8.448;2023-03-31T05:39:12;9.00;99.90
8475;DHT22;4274;52.012;8.448;2023-03-31T05:41:38;9.00;99.90
8475;DHT22;4274;52.012;8.448;2023-03-31T05:44:04;9.00;99.90
8475;DHT22;4274;52.012;8.448;2023-03-31T05:46:29;9.00;99.90
8475;DHT22;4274;52.012;8.448;2023-03-31T05:48:55;9.00;99.90
8475;DHT22;4274;52.012;8.448;2023-03-31T05:51:21;9.00;99.90
8475;DHT22;4274;52.012;8.448;2023-03-31T05:53:47;9.00;99.90
8475;DHT22;4274;52.012;8.448;2023-03-31T05:56:12;9.00;99.90
8475;DHT22;4274;52.012;8.448;2023-03-31T05:58:38;9.10;99.90
8475;DHT22;4274;52.012;8.448;2023-03-31T06:01:12;9.10;99.90
8475;DHT22;4274;52.012;8.448;2023-03-31T06:03:39;9.00;99.90
8475;DHT22;4274;52.012;8.448;2023-03-31T06:06:06;9.00;99.90
8475;DHT22;4274;52.012;8.448;2023-03-31T06:08:33;9.00;99.90
8475;DHT22;4274;52.012;8.448;2023-03-31T06:10:59;9.00;99.90
8475;DHT22;4274;52.012;8.448;2023-03-31T06:13:25;9.00;99.90
8475;DHT22;4274;52.012;8.448;2023-03-31T06:15:58;9.10;99.90
8475;DHT22;4274;52.012;8.448;2023-03-31T06:18:27;9.10;99.90
8475;DHT22;4274;52.012;8.448;2023-03-31T06:20:53;9.20;99.90
8475;DHT22;4274;52.012;8.448;2023-03-31T06:23:19;9.20;99.90
8475;DHT22;4274;52.012;8.448;2023-03-31T06:25:45;9.10;99.90
8475;DHT22;4274;52.012;8.448;2023-03-31T06:28:11;9.10;99.90
8475;DHT22;4274;52.012;8.448;2023-03-31T06:30:36;9.20;99.90
8475;DHT22;4274;52.012;8.448;2023-03-31T06:33:03;9.10;99.90
8475;DHT22;4274;52.012;8.448;2023-03-31T06:35:29;9.10;99.90
8475;DHT22;4274;52.012;8.448;2023-03-31T06:37:54;9.20;99.90
8475;DHT22;4274;52.012;8.448;2023-03-31T06:40:20;9.30;99.90
8475;DHT22;4274;52.012;8.448;2023-03-31T06:42:46;9.30;99.90
8475;DHT22;4274;52.012;8.448;2023-03-31T06:45:11;9.30;99.90
8475;DHT22;4274;52.012;8.448;2023-03-31T06:47:37;9.40;99.90
8475;DHT22;4274;52.012;8.448;2023-03-31T06:50:04;9.40;99.90
8475;DHT22;4274;52.012;8.448;2023-03-31T06:52:30;9.40;99.90
8475;DHT22;4274;52.012;8.448;2023-03-31T06:54:56;9.40;99.90
8475;DHT22;4274;52.012;8.448;2023-03-31T06:57:22;9.40;99.90
8475;DHT22;4274;52.012;8.448;2023-03-31T06:59:47;9.40;99.90
8475;DHT22;4274;52.012;8.448;2023-03-31T07:02:14;9.40;99.90
8475;DHT22;4274;52.012;8.448;2023-03-31T07:04:39;9.40;99.90
8475;DHT22;4274;52.012;8.448;2023-03-31T07:07:05;9.30;99.90
8475;DHT22;4274;52.012;8.448;2023-03-31T07:09:30;9.40;99.90
8475;DHT22;4274;52.012;8.448;2023-03-31T07:11:56;9.40;99.90
8475;DHT22;4274;52.012;8.448;2023-03-31T07:14:22;9.40;99.90
8475;DHT22;4274;52.012;8.448;2023-03-31T07:16:47;9.40;99.90
8475;DHT22;4274;52.012;8.448;2023-03-31T07:19:15;9.50;99.90
8475;DHT22;4274;52.012;8.448;2023-03-31T07:21:40;9.50;99.90
8475;DHT22;4274;52.012;8.448;2023-03-31T07:24:06;9.50;99.90
8475;DHT22;4274;52.012;8.448;2023-03-31T07:26:32;9.50;99.90
8475;DHT22;4274;52.012;8.448;2023-03-31T07:28:57;9.50;99.90
8475;DHT22;4274;52.012;8.448;2023-03-31T07:31:23;9.50;99.90
8475;DHT22;4274;52.012;8.448;2023-03-31T07:33:49;9.60;99.90
8475;DHT22;4274;52.012;8.448;2023-03-31T07:36:14;9.60;99.90
8475;DHT22;4274;52.012;8.448;2023-03-31T07:38:42;9.60;99.90
8475;DHT22;4274;52.012;8.448;2023-03-31T07:41:12;9.70;99.90
8475;DHT22;4274;52.012;8.448;2023-03-31T07:43:38;9.70;99.90
8475;DHT22;4274;52.012;8.448;2023-03-31T07:46:04;9.70;99.90
8475;DHT22;4274;52.012;8.448;2023-03-31T07:48:32;9.80;99.90
8475;DHT22;4274;52.012;8.448;2023-03-31T07:50:58;9.80;99.90
8475;DHT22;4274;52.012;8.448;2023-03-31T07:53:23;9.80;99.90
8475;DHT22;4274;52.012;8.448;2023-03-31T07:55:49;9.80;99.90
8475;DHT22;4274;52.012;8.448;2023-03-31T07:58:14;9.80;99.90
8475;DHT22;4274;52.012;8.448;2023-03-31T08:00:40;9.80;99.90
8475;DHT22;4274;52.012;8.448;2023-03-31T08:03:06;9.80;99.90
8475;DHT22;4274;52.012;8.448;2023-03-31T08:05:31;9.80;99.90
8475;DHT22;4274;52.012;8.448;2023-03-31T08:07:57;9.80;99.90
8475;DHT22;4274;52.012;8.448;2023-03-31T08:10:25;9.80;99.90
8475;DHT22;4274;52.012;8.448;2023-03-31T08:12:51;9.80;99.90
8475;DHT22;4274;52.012;8.448;2023-03-31T08:15:17;9.80;99.90
8475;DHT22;4274;52.012;8.448;2023-03-31T08:17:43;9.80;99.90
8475;DHT22;4274;52.012;8.448;2023-03-31T08:20:09;9.80;99.90
8475;DHT22;4274;52.012;8.448;2023-03-31T08:22:36;9.70;99.90
8475;DHT22;4274;52.012;8.448;2023-03-31T08:25:03;9.70;99.90
8475;DHT22;4274;52.012;8.448;2023-03-31T08:27:35;9.70;99.90
8475;DHT22;4274;52.012;8.448;2023-03-31T08:30:01;9.60;99.90
8475;DHT22;4274;52.012;8.448;2023-03-31T08:32:30;9.60;99.90
8475;DHT22;4274;52.012;8.448;2023-03-31T08:34:56;9.60;99.90
8475;DHT22;4274;52.012;8.448;2023-03-31T08:37:21;9.70;99.90
8475;DHT22;4274;52.012;8.448;2023-03-31T08:39:47;9.70;99.90
8475;DHT22;4274;52.012;8.448;2023-03-31T08:42:17;9.70;99.90
8475;DHT22;4274;52.012;8.448;2023-03-31T08:44:50;9.60;99.90
8475;DHT22;4274;52.012;8.448;2023-03-31T08:47:22;9.60;99.90
8475;DHT22;4274;52.012;8.448;2023-03-31T08:49:52;9.60;99.90
8475;DHT22;4274;52.012;8.448;2023-03-31T08:52:28;9.60;99.90
8475;DHT22;4274;52.012;8.448;2023-03-31T08:54:58;9.60;99.90
8475;DHT22;4274;52.012;8.448;2023-03-31T08:57:34;9.50;99.90
8475;DHT22;4274;52.012;8.448;2023-03-31T09:00:03;9.40;99.90
8475;DHT22;4274;52.012;8.448;2023-03-31T09:02:44;9.40;99.90
8475;DHT22;4274;52.012;8.448;2023-03-31T09:07:59;9.40;99.90
8475;DHT22;4274;52.012;8.448;2023-03-31T09:13:37;9.30;99.90
8475;DHT22;4274;52.012;8.448;2023-03-31T09:18:38;9.30;99.90
8475;DHT22;4274;52.012;8.448;2023-03-31T09:21:26;9.30;99.90
8475;DHT22;4274;52.012;8.448;2023-03-31T09:24:19;9.40;99.90
8475;DHT22;4274;52.012;8.448;2023-03-31T09:26:57;9.40;99.90
8475;DHT22;4274;52.012;8.448;2023-03-31T09:29:48;9.40;99.90
8475;DHT22;4274;52.012;8.448;2023-03-31T09:32:21;9.50;99.90
8475;DHT22;4274;52.012;8.448;2023-03-31T09:34:52;9.50;99.90
8475;DHT22;4274;52.012;8.448;2023-03-31T09:37:18;9.60;99.90
8475;DHT22;4274;52.012;8.448;2023-03-31T09:39:43;9.60;99.90
8475;DHT22;4274;52.012;8.448;2023-03-31T09:42:12;9.70;99.90
8475;DHT22;4274;52.012;8.448;2023-03-31T09:44:46;9.70;99.90
8475;DHT22;4274;52.012;8.448;2023-03-31T09:47:34;9.70;99.90
8475;DHT22;4274;52.012;8.448;2023-03-31T09:50:04;9.60;99.90
8475;DHT22;4274;52.012;8.448;2023-03-31T09:52:43;9.60;99.90
8475;DHT22;4274;52.012;8.448;2023-03-31T09:55:22;9.50;99.90
8475;DHT22;4274;52.012;8.448;2023-03-31T09:57:48;9.50;99.90
8475;DHT22;4274;52.012;8.448;2023-03-31T10:00:19;9.50;99.90
8475;DHT22;4274;52.012;8.448;2023-03-31T10:02:53;9.50;99.90
8475;DHT22;4274;52.012;8.448;2023-03-31T10:05:33;9.60;99.90
8475;DHT22;4274;52.012;8.448;2023-03-31T10:10:48;9.60;99.90
8475;DHT22;4274;52.012;8.448;2023-03-31T10:13:18;9.60;99.90
8475;DHT22;4274;52.012;8.448;2023-03-31T10:15:44;9.70;99.90
8475;DHT22;4274;52.012;8.448;2023-03-31T10:18:17;9.80;99.90
8475;DHT22;4274;52.012;8.448;2023-03-31T10:20:49;9.80;99.90
8475;DHT22;4274;52.012;8.448;2023-03-31T10:23:17;9.90;99.90
8475;DHT22;4274;52.012;8.448;2023-03-31T10:25:47;10.00;99.90
8475;DHT22;4274;52.012;8.448;2023-03-31T10:28:16;10.00;99.90
8475;DHT22;4274;52.012;8.448;2023-03-31T10:30:56;10.10;99.90
8475;DHT22;4274;52.012;8.448;2023-03-31T10:33:25;10.20;99.90
8475;DHT22;4274;52.012;8.448;2023-03-31T10:36:21;10.30;99.90
8475;DHT22;4274;52.012;8.448;2023-03-31T10:38:49;10.50;99.90
8475;DHT22;4274;52.012;8.448;2023-03-31T10:41:21;10.70;99.90
8475;DHT22;4274;52.012;8.448;2023-03-31T10:43:50;10.90;99.90
8475;DHT22;4274;52.012;8.448;2023-03-31T10:46:16;11.20;99.90
8475;DHT22;4274;52.012;8.448;2023-03-31T10:48:42;11.60;99.90
8475;DHT22;4274;52.012;8.448;2023-03-31T10:53:48;12.10;99.90
8475;DHT22;4274;52.012;8.448;2023-03-31T11:07:40;11.70;99.90
8475;DHT22;4274;52.012;8.448;2023-03-31T11:12:51;11.50;99.90
8475;DHT22;4274;52.012;8.448;2023-03-31T11:22:09;11.30;99.90
8475;DHT22;4274;52.012;8.448;2023-03-31T11:24:32;11.30;99.90
8475;DHT22;4274;52.012;8.448;2023-03-31T11:29:49;11.40;99.90
8475;DHT22;4274;52.012;8.448;2023-03-31T11:40:39;11.70;99.90
8475;DHT22;4274;52.012;8.448;2023-03-31T11:46:47;12.00;99.90
8475;DHT22;4274;52.012;8.448;2023-03-31T11:49:17;12.10;99.90
8475;DHT22;4274;52.012;8.448;2023-03-31T11:51:50;12.00;99.90
8475;DHT22;4274;52.012;8.448;2023-03-31T11:54:29;12.00;99.90
8475;DHT22;4274;52.012;8.448;2023-03-31T11:56:57;11.80;99.90
8475;DHT22;4274;52.012;8.448;2023-03-31T11:59:27;11.80;99.90
8475;DHT22;4274;52.012;8.448;2023-03-31T12:02:23;11.70;99.90
8475;DHT22;4274;52.012;8.448;2023-03-31T12:04:53;11.70;99.90
8475;DHT22;4274;52.012;8.448;2023-03-31T12:07:31;11.80;99.90
8475;DHT22;4274;52.012;8.448;2023-03-31T12:12:43;11.90;99.90
8475;DHT22;4274;52.012;8.448;2023-03-31T12:15:38;11.90;99.90
8475;DHT22;4274;52.012;8.448;2023-03-31T12:18:20;12.10;99.90
8475;DHT22;4274;52.012;8.448;2023-03-31T12:20:50;12.30;99.90
8475;DHT22;4274;52.012;8.448;2023-03-31T12:23:20;12.50;99.90
8475;DHT22;4274;52.012;8.448;2023-03-31T12:28:28;12.80;99.90
8475;DHT22;4274;52.012;8.448;2023-03-31T12:30:54;12.90;99.90
8475;DHT22;4274;52.012;8.448;2023-03-31T12:33:27;12.90;99.90
8475;DHT22;4274;52.012;8.448;2023-03-31T12:44:26;13.20;99.90
8475;DHT22;4274;52.012;8.448;2023-03-31T12:47:25;13.30;99.90
8475;DHT22;4274;52.012;8.448;2023-03-31T12:55:30;13.60;99.90
8475;DHT22;4274;52.012;8.448;2023-03-31T13:01:04;14.10;99.90
8475;DHT22;4274;52.012;8.448;2023-03-31T13:03:45;14.00;99.90
8475;DHT22;4274;52.012;8.448;2023-03-31T13:08:58;13.50;99.90
8475;DHT22;4274;52.012;8.448;2023-03-31T13:16:47;12.50;99.90
8475;DHT22;4274;52.012;8.448;2023-03-31T13:19:34;12.20;99.90
8475;DHT22;4274;52.012;8.448;2023-03-31T13:22:01;11.90;99.90
8475;DHT22;4274;52.012;8.448;2023-03-31T13:24:29;11.70;99.90
8475;DHT22;4274;52.012;8.448;2023-03-31T13:29:43;11.40;99.90
8475;DHT22;4274;52.012;8.448;2023-03-31T13:32:21;11.40;99.90
8475;DHT22;4274;52.012;8.448;2023-03-31T13:34:55;11.40;99.90
8475;DHT22;4274;52.012;8.448;2023-03-31T13:37:52;11.40;99.90
8475;DHT22;4274;52.012;8.448;2023-03-31T13:41:01;11.50;99.90
8475;DHT22;4274;52.012;8.448;2023-03-31T13:51:59;12.40;99.90
8475;DHT22;4274;52.012;8.448;2023-03-31T14:00:50;12.50;99.90
8475;DHT22;4274;52.012;8.448;2023-03-31T14:06:24;12.80;99.90
8475;DHT22;4274;52.012;8.448;2023-03-31T14:09:02;12.80;99.90
8475;DHT22;4274;52.012;8.448;2023-03-31T14:11:30;12.90;99.90
8475;DHT22;4274;52.012;8.448;2023-03-31T14:14:16;12.90;99.90
8475;DHT22;4274;52.012;8.448;2023-03-31T14:16:54;12.90;99.90
8475;DHT22;4274;52.012;8.448;2023-03-31T14:19:57;12.70;99.90
8475;DHT22;4274;52.012;8.448;2023-03-31T14:25:25;12.50;99.90
8475;DHT22;4274;52.012;8.448;2023-03-31T14:31:14;12.40;99.90
8475;DHT22;4274;52.012;8.448;2023-03-31T14:34:07;12.40;99.90
8475;DHT22;4274;52.012;8.448;2023-03-31T14:36:43;12.30;99.90
8475;DHT22;4274;52.012;8.448;2023-03-31T14:39:15;12.30;99.90
8475;DHT22;4274;52.012;8.448;2023-03-31T14:41:43;12.30;99.90
8475;DHT22;4274;52.012;8.448;2023-03-31T14:44:13;12.30;99.90
8475;DHT22;4274;52.012;8.448;2023-03-31T14:46:40;12.30;99.90
8475;DHT22;4274;52.012;8.448;2023-03-31T14:49:33;12.30;99.90
8475;DHT22;4274;52.012;8.448;2023-03-31T14:52:01;12.30;99.90
8475;DHT22;4274;52.012;8.448;2023-03-31T14:54:33;12.30;99.90
8475;DHT22;4274;52.012;8.448;2023-03-31T14:57:03;12.30;99.90
8475;DHT22;4274;52.012;8.448;2023-03-31T14:59:31;12.30;99.90
8475;DHT22;4274;52.012;8.448;2023-03-31T15:01:59;12.30;99.90
8475;DHT22;4274;52.012;8.448;2023-03-31T15:04:29;12.30;99.90
8475;DHT22;4274;52.012;8.448;2023-03-31T15:06:56;12.30;99.90
8475;DHT22;4274;52.012;8.448;2023-03-31T15:09:26;12.30;99.90
8475;DHT22;4274;52.012;8.448;2023-03-31T15:11:59;12.30;99.90
8475;DHT22;4274;52.012;8.448;2023-03-31T15:14:34;12.30;99.90
8475;DHT22;4274;52.012;8.448;2023-03-31T15:17:01;12.30;99.90
8475;DHT22;4274;52.012;8.448;2023-03-31T15:19:29;12.40;99.90
8475;DHT22;4274;52.012;8.448;2023-03-31T15:22:22;12.30;99.90
8475;DHT22;4274;52.012;8.448;2023-03-31T15:24:48;12.40;99.90
8475;DHT22;4274;52.012;8.448;2023-03-31T15:27:33;12.30;99.90
8475;DHT22;4274;52.012;8.448;2023-03-31T15:30:03;12.30;99.90
8475;DHT22;4274;52.012;8.448;2023-03-31T15:32:39;12.30;99.90
8475;DHT22;4274;52.012;8.448;2023-03-31T15:35:05;12.20;99.90
8475;DHT22;4274;52.012;8.448;2023-03-31T15:37:40;12.20;99.90
8475;DHT22;4274;52.012;8.448;2023-03-31T15:40:28;12.20;99.90
8475;DHT22;4274;52.012;8.448;2023-03-31T15:43:07;12.20;99.90
8475;DHT22;4274;52.012;8.448;2023-03-31T15:48:04;12.20;99.90
8475;DHT22;4274;52.012;8.448;2023-03-31T15:50:31;12.10;99.90
8475;DHT22;4274;52.012;8.448;2023-03-31T15:52:57;12.20;99.90
8475;DHT22;4274;52.012;8.448;2023-03-31T15:55:27;12.20;99.90
8475;DHT22;4274;52.012;8.448;2023-03-31T15:57:55;12.20;99.90
8475;DHT22;4274;52.012;8.448;2023-03-31T16:02:56;12.20;99.90
8475;DHT22;4274;52.012;8.448;2023-03-31T16:07:56;12.20;99.90
8475;DHT22;4274;52.012;8.448;2023-03-31T16:10:22;12.20;99.90
8475;DHT22;4274;52.012;8.448;2023-03-31T16:13:00;12.20;99.90
8475;DHT22;4274;52.012;8.448;2023-03-31T16:15:34;12.20;99.90
8475;DHT22;4274;52.012;8.448;2023-03-31T16:18:04;12.20;99.90
8475;DHT22;4274;52.012;8.448;2023-03-31T16:20:34;12.10;99.90
8475;DHT22;4274;52.012;8.448;2023-03-31T16:23:10;12.10;99.90
8475;DHT22;4274;52.012;8.448;2023-03-31T16:25:39;12.00;99.90
8475;DHT22;4274;52.012;8.448;2023-03-31T16:28:05;12.00;99.90
8475;DHT22;4274;52.012;8.448;2023-03-31T16:30:34;12.00;99.90
8475;DHT22;4274;52.012;8.448;2023-03-31T16:35:42;11.90;99.90
8475;DHT22;4274;52.012;8.448;2023-03-31T16:38:10;11.90;99.90
8475;DHT22;4274;52.012;8.448;2023-03-31T16:40:41;11.80;99.90
8475;DHT22;4274;52.012;8.448;2023-03-31T16:43:15;11.80;99.90
8475;DHT22;4274;52.012;8.448;2023-03-31T16:45:50;11.70;99.90
8475;DHT22;4274;52.012;8.448;2023-03-31T16:48:17;11.70;99.90
8475;DHT22;4274;52.012;8.448;2023-03-31T16:50:44;11.60;99.90
8475;DHT22;4274;52.012;8.448;2023-03-31T16:53:16;11.50;99.90
8475;DHT22;4274;52.012;8.448;2023-03-31T16:55:42;11.40;99.90
8475;DHT22;4274;52.012;8.448;2023-03-31T16:58:08;11.30;99.90
8475;DHT22;4274;52.012;8.448;2023-03-31T17:00:34;11.30;99.90
8475;DHT22;4274;52.012;8.448;2023-03-31T17:03:02;11.20;99.90
8475;DHT22;4274;52.012;8.448;2023-03-31T17:05:28;11.00;99.90
8475;DHT22;4274;52.012;8.448;2023-03-31T17:07:56;10.90;99.90
8475;DHT22;4274;52.012;8.448;2023-03-31T17:10:23;10.80;99.90
8475;DHT22;4274;52.012;8.448;2023-03-31T17:12:48;10.70;99.90
8475;DHT22;4274;52.012;8.448;2023-03-31T17:15:14;10.60;99.90
8475;DHT22;4274;52.012;8.448;2023-03-31T17:17:40;10.50;99.90
8475;DHT22;4274;52.012;8.448;2023-03-31T17:20:06;10.30;99.90
8475;DHT22;4274;52.012;8.448;2023-03-31T17:22:33;10.30;99.90
8475;DHT22;4274;52.012;8.448;2023-03-31T17:24:59;10.20;99.90
8475;DHT22;4274;52.012;8.448;2023-03-31T17:27:26;10.10;99.90
8475;DHT22;4274;52.012;8.448;2023-03-31T17:29:52;10.00;99.90
8475;DHT22;4274;52.012;8.448;2023-03-31T17:32:18;9.90;99.90
8475;DHT22;4274;52.012;8.448;2023-03-31T17:34:44;9.90;99.90
8475;DHT22;4274;52.012;8.448;2023-03-31T17:37:12;9.80;99.90
8475;DHT22;4274;52.012;8.448;2023-03-31T17:39:38;9.80;99.90
8475;DHT22;4274;52.012;8.448;2023-03-31T17:42:04;9.80;99.90
8475;DHT22;4274;52.012;8.448;2023-03-31T17:44:29;9.70;99.90
8475;DHT22;4274;52.012;8.448;2023-03-31T17:46:55;9.70;99.90
8475;DHT22;4274;52.012;8.448;2023-03-31T17:49:21;9.70;99.90
8475;DHT22;4274;52.012;8.448;2023-03-31T17:51:47;9.70;99.90
8475;DHT22;4274;52.012;8.448;2023-03-31T17:54:14;9.70;99.90
8475;DHT22;4274;52.012;8.448;2023-03-31T17:56:39;9.60;99.90
8475;DHT22;4274;52.012;8.448;2023-03-31T17:59:06;9.60;99.90
8475;DHT22;4274;52.012;8.448;2023-03-31T18:01:31;9.60;99.90
8475;DHT22;4274;52.012;8.448;2023-03-31T18:03:57;9.60;99.90
8475;DHT22;4274;52.012;8.448;2023-03-31T18:06:23;9.60;99.90
8475;DHT22;4274;52.012;8.448;2023-03-31T18:08:49;9.70;99.90
8475;DHT22;4274;52.012;8.448;2023-03-31T18:11:15;9.70;99.90
8475;DHT22;4274;52.012;8.448;2023-03-31T18:13:41;9.70;99.90
8475;DHT22;4274;52.012;8.448;2023-03-31T18:16:08;9.70;99.90
8475;DHT22;4274;52.012;8.448;2023-03-31T18:18:35;9.70;99.90
8475;DHT22;4274;52.012;8.448;2023-03-31T18:21:05;9.70;99.90
8475;DHT22;4274;52.012;8.448;2023-03-31T18:23:32;9.70;99.90
8475;DHT22;4274;52.012;8.448;2023-03-31T18:25:58;9.70;99.90
8475;DHT22;4274;52.012;8.448;2023-03-31T18:28:23;9.60;99.90
8475;DHT22;4274;52.012;8.448;2023-03-31T18:30:49;9.60;99.90
8475;DHT22;4274;52.012;8.448;2023-03-31T18:33:15;9.60;99.90
8475;DHT22;4274;52.012;8.448;2023-03-31T18:35:40;9.60;99.90
8475;DHT22;4274;52.012;8.448;2023-03-31T18:38:06;9.60;99.90
8475;DHT22;4274;52.012;8.448;2023-03-31T18:40:32;9.60;99.90
8475;DHT22;4274;52.012;8.448;2023-03-31T18:42:57;9.50;99.90
8475;DHT22;4274;52.012;8.448;2023-03-31T18:45:23;9.50;99.90
8475;DHT22;4274;52.012;8.448;2023-03-31T18:47:49;9.50;99.90
8475;DHT22;4274;52.012;8.448;2023-03-31T18:50:15;9.50;99.90
8475;DHT22;4274;52.012;8.448;2023-03-31T18:52:40;9.50;99.90
8475;DHT22;4274;52.012;8.448;2023-03-31T18:55:06;9.60;99.90
8475;DHT22;4274;52.012;8.448;2023-03-31T18:57:32;9.50;99.90
8475;DHT22;4274;52.012;8.448;2023-03-31T18:59:57;9.50;99.90
8475;DHT22;4274;52.012;8.448;2023-03-31T19:02:23;9.50;99.90
8475;DHT22;4274;52.012;8.448;2023-03-31T19:04:49;9.50;99.90
8475;DHT22;4274;52.012;8.448;2023-03-31T19:07:15;9.50;99.90